sensor_id;sensor_type;location;lat;lon;timestamp;temperature;humidity
10306;DHT22;5198;52.382;9.020;2023-12-20T04:50:42;6.00;99.90
10306;DHT22;5198;52.382;9.020;2023-12-20T04:54:45;6.10;99.90
10306;DHT22;5198;52.382;9.020;2023-12-20T04:58:48;6.10;99.90
10306;DHT22;5198;52.382;9.020;2023-12-20T05:02:58;6.20;99.90
10306;DHT22;5198;52.382;9.020;2023-12-20T05:07:09;6.30;99.90
10306;DHT22;5198;52.382;9.020;2023-12-20T05:11:12;6.40;99.90
10306;DHT22;5198;52.382;9.020;2023-12-20T05:15:28;6.40;99.90
10306;DHT22;5198;52.382;9.020;2023-12-20T05:19:39;6.50;99.90
10306;DHT22;5198;52.382;9.020;2023-12-20T05:23:43;6.50;99.90
10306;DHT22;5198;52.382;9.020;2023-12-20T05:27:47;6.50;99.90
10306;DHT22;5198;52.382;9.020;2023-12-20T05:31:50;6.50;99.90
10306;DHT22;5198;52.382;9.020;2023-12-20T05:35:55;6.50;99.90
10306;DHT22;5198;52.382;9.020;2023-12-20T05:40:00;6.50;99.90
10306;DHT22;5198;52.382;9.020;2023-12-20T05:44:03;6.50;99.90
10306;DHT22;5198;52.382;9.020;2023-12-20T05:48:07;6.50;99.90
10306;DHT22;5198;52.382;9.020;2023-12-20T05:52:13;6.50;99.90
10306;DHT22;5198;52.382;9.020;2023-12-20T05:56:30;6.50;99.90
10306;DHT22;5198;52.382;9.020;2023-12-20T06:00:33;6.50;99.90
10306;DHT22;5198;52.382;9.020;2023-12-20T06:04:36;6.50;99.90
10306;DHT22;5198;52.382;9.020;2023-12-20T06:08:45;6.50;99.90
10306;DHT22;5198;52.382;9.020;2023-12-20T06:17:02;6.50;99.90
10306;DHT22;5198;52.382;9.020;2023-12-20T06:21:07;6.50;99.90
10306;DHT22;5198;52.382;9.020;2023-12-20T06:25:10;6.50;99.90
10306;DHT22;5198;52.382;9.020;2023-12-20T06:29:13;6.50;99.90
10306;DHT22;5198;52.382;9.020;2023-12-20T06:33:17;6.50;99.90
10306;DHT22;5198;52.382;9.020;2023-12-20T06:37:20;6.50;99.90
10306;DHT22;5198;52.382;9.020;2023-12-20T06:41:23;6.50;99.90
10306;DHT22;5198;52.382;9.020;2023-12-20T06:45:35;6.50;99.90
10306;DHT22;5198;52.382;9.020;2023-12-20T06:49:40;6.60;99.90
10306;DHT22;5198;52.382;9.020;2023-12-20T06:53:43;6.50;99.90
10306;DHT22;5198;52.382;9.020;2023-12-20T06:57:46;6.50;99.90
10306;DHT22;5198;52.382;9.020;2023-12-20T07:01:49;6.50;99.90
10306;DHT22;5198;52.382;9.020;2023-12-20T07:05:53;6.60;99.90
10306;DHT22;5198;52.382;9.020;2023-12-20T07:09:56;6.60;99.90
10306;DHT22;5198;52.382;9.020;2023-12-20T07:13:59;6.60;99.90
10306;DHT22;5198;52.382;9.020;2023-12-20T07:18:03;6.60;99.90
10306;DHT22;5198;52.382;9.020;2023-12-20T07:22:08;6.60;99.90
10306;DHT22;5198;52.382;9.020;2023-12-20T07:26:11;6.60;99.90
10306;DHT22;5198;52.382;9.020;2023-12-20T07:30:14;6.60;99.90
10306;DHT22;5198;52.382;9.020;2023-12-20T07:34:17;6.60;99.90
10306;DHT22;5198;52.382;9.020;2023-12-20T07:38:22;6.60;99.90
10306;DHT22;5198;52.382;9.020;2023-12-20T07:42:35;6.60;99.90
10306;DHT22;5198;52.382;9.020;2023-12-20T07:46:38;6.60;99.90
10306;DHT22;5198;52.382;9.020;2023-12-20T07:54:55;6.60;99.90
10306;DHT22;5198;52.382;9.020;2023-12-20T07:59:01;6.60;99.90
10306;DHT22;5198;52.382;9.020;2023-12-20T08:03:07;6.60;99.90
10306;DHT22;5198;52.382;9.020;2023-12-20T08:07:09;6.60;99.90
10306;DHT22;5198;52.382;9.020;2023-12-20T08:11:14;6.60;99.90
10306;DHT22;5198;52.382;9.020;2023-12-20T15:16:38;6.10;99.90
10306;DHT22;5198;52.382;9.020;2023-12-20T15:20:41;6.10;99.90
10306;DHT22;5198;52.382;9.020;2023-12-20T15:24:46;6.10;99.90
10306;DHT22;5198;52.382;9.020;2023-12-20T15:28:51;6.20;99.90
10306;DHT22;5198;52.382;9.020;2023-12-20T15:33:03;6.20;99.90
10306;DHT22;5198;52.382;9.020;2023-12-20T15:37:13;6.20;99.90
10306;DHT22;5198;52.382;9.020;2023-12-20T15:41:18;6.20;99.90
10306;DHT22;5198;52.382;9.020;2023-12-20T15:45:28;6.20;99.90
10306;DHT22;5198;52.382;9.020;2023-12-20T15:49:33;6.20;99.90
10306;DHT22;5198;52.382;9.020;2023-12-20T15:53:36;6.20;99.90
10306;DHT22;5198;52.382;9.020;2023-12-20T15:57:40;6.20;99.90
10306;DHT22;5198;52.382;9.020;2023-12-20T16:01:55;6.20;99.90
10306;DHT22;5198;52.382;9.020;2023-12-20T16:05:59;6.20;99.90
10306;DHT22;5198;52.382;9.020;2023-12-20T16:10:02;6.20;99.90
10306;DHT22;5198;52.382;9.020;2023-12-20T16:14:06;6.20;99.90
10306;DHT22;5198;52.382;9.020;2023-12-20T16:18:13;6.20;99.90
10306;DHT22;5198;52.382;9.020;2023-12-20T16:22:21;6.20;99.90
10306;DHT22;5198;52.382;9.020;2023-12-20T16:26:23;6.20;99.90
10306;DHT22;5198;52.382;9.020;2023-12-20T16:30:26;6.20;99.90
10306;DHT22;5198;52.382;9.020;2023-12-20T16:34:29;6.20;99.90
10306;DHT22;5198;52.382;9.020;2023-12-20T16:38:37;6.20;99.90
10306;DHT22;5198;52.382;9.020;2023-12-20T16:42:40;6.20;99.90
10306;DHT22;5198;52.382;9.020;2023-12-20T16:46:50;6.20;99.90
10306;DHT22;5198;52.382;9.020;2023-12-20T16:50:54;6.10;99.90
10306;DHT22;5198;52.382;9.020;2023-12-20T16:54:59;6.10;99.90
10306;DHT22;5198;52.382;9.020;2023-12-20T16:59:02;6.10;99.90
10306;DHT22;5198;52.382;9.020;2023-12-20T17:03:07;6.10;99.90
10306;DHT22;5198;52.382;9.020;2023-12-20T17:07:10;6.10;99.90
10306;DHT22;5198;52.382;9.020;2023-12-20T17:11:15;6.10;99.90
10306;DHT22;5198;52.382;9.020;2023-12-20T17:15:18;6.10;99.90
10306;DHT22;5198;52.382;9.020;2023-12-20T17:19:21;6.10;99.90
10306;DHT22;5198;52.382;9.020;2023-12-20T17:23:25;6.10;99.90
10306;DHT22;5198;52.382;9.020;2023-12-20T17:27:30;6.10;99.90
10306;DHT22;5198;52.382;9.020;2023-12-20T17:31:33;6.00;99.90
10306;DHT22;5198;52.382;9.020;2023-12-20T17:35:39;6.00;99.90
10306;DHT22;5198;52.382;9.020;2023-12-20T17:39:43;6.00;99.90
10306;DHT22;5198;52.382;9.020;2023-12-20T17:43:48;6.00;99.90
10306;DHT22;5198;52.382;9.020;2023-12-20T17:47:51;6.00;99.90
10306;DHT22;5198;52.382;9.020;2023-12-20T17:51:54;6.00;99.90
10306;DHT22;5198;52.382;9.020;2023-12-20T17:55:57;6.00;99.90
10306;DHT22;5198;52.382;9.020;2023-12-20T18:00:11;6.00;99.90
10306;DHT22;5198;52.382;9.020;2023-12-20T18:04:15;6.00;99.90
10306;DHT22;5198;52.382;9.020;2023-12-20T18:08:22;6.00;99.90
10306;DHT22;5198;52.382;9.020;2023-12-20T18:12:25;6.00;99.90
10306;DHT22;5198;52.382;9.020;2023-12-20T18:16:30;6.10;99.90
10306;DHT22;5198;52.382;9.020;2023-12-20T18:20:36;6.10;99.90
10306;DHT22;5198;52.382;9.020;2023-12-20T18:24:39;6.10;99.90
10306;DHT22;5198;52.382;9.020;2023-12-20T18:28:44;6.10;99.90
10306;DHT22;5198;52.382;9.020;2023-12-20T18:32:48;6.10;99.90
10306;DHT22;5198;52.382;9.020;2023-12-20T18:36:51;6.20;99.90
10306;DHT22;5198;52.382;9.020;2023-12-20T18:40:54;6.20;99.90
10306;DHT22;5198;52.382;9.020;2023-12-20T18:44:57;6.20;99.90
10306;DHT22;5198;52.382;9.020;2023-12-20T18:49:02;6.20;99.90
10306;DHT22;5198;52.382;9.020;2023-12-20T18:57:15;6.30;99.90
10306;DHT22;5198;52.382;9.020;2023-12-20T19:01:19;6.40;99.90
10306;DHT22;5198;52.382;9.020;2023-12-20T19:05:23;6.40;99.90
10306;DHT22;5198;52.382;9.020;2023-12-20T19:09:28;6.50;99.90
10306;DHT22;5198;52.382;9.020;2023-12-20T19:13:31;6.60;99.90
10306;DHT22;5198;52.382;9.020;2023-12-20T19:17:36;6.60;99.90
10306;DHT22;5198;52.382;9.020;2023-12-20T19:21:41;6.80;99.90
10306;DHT22;5198;52.382;9.020;2023-12-20T19:25:44;6.80;99.90
10306;DHT22;5198;52.382;9.020;2023-12-20T19:29:47;6.90;99.90
10306;DHT22;5198;52.382;9.020;2023-12-20T19:33:50;7.00;99.90
10306;DHT22;5198;52.382;9.020;2023-12-20T19:37:56;7.00;99.90
10306;DHT22;5198;52.382;9.020;2023-12-20T19:42:00;7.10;99.90
10306;DHT22;5198;52.382;9.020;2023-12-20T19:46:03;7.10;99.90
10306;DHT22;5198;52.382;9.020;2023-12-20T19:50:06;7.20;99.90
10306;DHT22;5198;52.382;9.020;2023-12-20T19:54:12;7.20;99.90
10306;DHT22;5198;52.382;9.020;2023-12-20T19:58:14;7.20;99.90
10306;DHT22;5198;52.382;9.020;2023-12-20T20:02:17;7.30;99.90
10306;DHT22;5198;52.382;9.020;2023-12-20T20:06:20;7.30;99.90
10306;DHT22;5198;52.382;9.020;2023-12-20T20:10:25;7.30;99.90
10306;DHT22;5198;52.382;9.020;2023-12-20T20:14:28;7.40;99.90
10306;DHT22;5198;52.382;9.020;2023-12-20T20:18:31;7.40;99.90
10306;DHT22;5198;52.382;9.020;2023-12-20T20:22:41;7.40;99.90
10306;DHT22;5198;52.382;9.020;2023-12-20T20:31:01;7.50;99.90
10306;DHT22;5198;52.382;9.020;2023-12-20T20:39:26;7.50;99.90
10306;DHT22;5198;52.382;9.020;2023-12-20T20:43:29;7.50;99.90
10306;DHT22;5198;52.382;9.020;2023-12-20T20:47:36;7.60;99.90
10306;DHT22;5198;52.382;9.020;2023-12-20T20:55:58;7.60;99.90
10306;DHT22;5198;52.382;9.020;2023-12-20T21:00:03;7.60;99.90
10306;DHT22;5198;52.382;9.020;2023-12-20T21:04:17;7.70;99.90
10306;DHT22;5198;52.382;9.020;2023-12-20T21:08:20;7.70;99.90
10306;DHT22;5198;52.382;9.020;2023-12-20T21:12:38;7.70;99.90
10306;DHT22;5198;52.382;9.020;2023-12-20T21:16:53;7.70;99.90
10306;DHT22;5198;52.382;9.020;2023-12-20T21:21:06;7.80;99.90
10306;DHT22;5198;52.382;9.020;2023-12-20T21:25:09;7.80;99.90
10306;DHT22;5198;52.382;9.020;2023-12-20T21:29:12;7.80;99.90
10306;DHT22;5198;52.382;9.020;2023-12-20T21:33:16;7.80;99.90
10306;DHT22;5198;52.382;9.020;2023-12-20T21:37:20;7.80;99.90
10306;DHT22;5198;52.382;9.020;2023-12-20T21:41:23;7.80;99.90
10306;DHT22;5198;52.382;9.020;2023-12-20T21:45:27;7.90;99.90
10306;DHT22;5198;52.382;9.020;2023-12-20T21:49:30;7.90;99.90
10306;DHT22;5198;52.382;9.020;2023-12-20T21:53:47;7.90;99.90
10306;DHT22;5198;52.382;9.020;2023-12-20T21:57:57;7.90;99.90
10306;DHT22;5198;52.382;9.020;2023-12-20T22:02:01;7.90;99.90
10306;DHT22;5198;52.382;9.020;2023-12-20T22:06:04;7.90;99.90
10306;DHT22;5198;52.382;9.020;2023-12-20T22:10:16;8.00;99.90
10306;DHT22;5198;52.382;9.020;2023-12-20T22:14:21;7.90;99.90
10306;DHT22;5198;52.382;9.020;2023-12-20T22:18:25;8.00;99.90
10306;DHT22;5198;52.382;9.020;2023-12-20T22:22:28;8.00;99.90
10306;DHT22;5198;52.382;9.020;2023-12-20T22:26:33;8.00;99.90
10306;DHT22;5198;52.382;9.020;2023-12-20T22:30:36;8.10;99.90
10306;DHT22;5198;52.382;9.020;2023-12-20T22:34:39;8.10;99.90
10306;DHT22;5198;52.382;9.020;2023-12-20T22:38:42;8.10;99.90
10306;DHT22;5198;52.382;9.020;2023-12-20T22:42:47;8.10;99.90
10306;DHT22;5198;52.382;9.020;2023-12-20T22:46:50;8.10;99.90
10306;DHT22;5198;52.382;9.020;2023-12-20T22:50:54;8.10;99.90
10306;DHT22;5198;52.382;9.020;2023-12-20T22:54:57;8.20;99.90
10306;DHT22;5198;52.382;9.020;2023-12-20T22:59:06;8.20;99.90
10306;DHT22;5198;52.382;9.020;2023-12-20T23:03:24;8.20;99.90
10306;DHT22;5198;52.382;9.020;2023-12-20T23:07:40;8.20;99.90
10306;DHT22;5198;52.382;9.020;2023-12-20T23:11:43;8.20;99.90
10306;DHT22;5198;52.382;9.020;2023-12-20T23:15:50;8.20;99.90
10306;DHT22;5198;52.382;9.020;2023-12-20T23:19:53;8.30;99.90
10306;DHT22;5198;52.382;9.020;2023-12-20T23:23:56;8.30;99.90
10306;DHT22;5198;52.382;9.020;2023-12-20T23:28:06;8.30;99.90
10306;DHT22;5198;52.382;9.020;2023-12-20T23:32:10;8.30;99.90
10306;DHT22;5198;52.382;9.020;2023-12-20T23:40:32;8.30;99.90
10306;DHT22;5198;52.382;9.020;2023-12-20T23:44:35;8.40;99.90
